Time;durP1;ratioP1;P1;durP2;ratioP2;P2;SDS_P1;SDS_P2;PMS_P1;PMS_P2;Temp;Humidity;BMP_temperature;BMP_pressure;BME280_temperature;BME280_humidity;BME280_pressure;Samples;Min_cycle;Max_cycle;Signal;HPM_P1;HPM_P2
2023/01/19 00:01:49;;;;;;;15.23;7.47;;;-1.80;99.90;;;;;;4954156;28;20296;-73
2023/01/19 00:04:15;;;;;;;16.63;7.73;;;-1.80;99.90;;;;;;4953886;28;20197;-73
2023/01/19 00:06:40;;;;;;;11.03;7.23;;;-1.80;99.90;;;;;;4937416;29;20181;-74
2023/01/19 00:09:06;;;;;;;8.77;6.73;;;-1.80;99.90;;;;;;4953835;28;20255;-74
2023/01/19 00:11:31;;;;;;;13.27;7.87;;;-1.80;99.90;;;;;;4953945;28;20215;-74
2023/01/19 00:13:57;;;;;;;14.70;7.00;;;-1.80;99.90;;;;;;4953730;28;20192;-74
2023/01/19 00:16:23;;;;;;;11.37;7.50;;;-1.80;99.90;;;;;;4953523;28;20239;-74
2023/01/19 00:18:50;;;;;;;12.03;7.70;;;-1.80;99.90;;;;;;4953516;28;20469;-73
2023/01/19 00:21:16;;;;;;;15.07;6.67;;;-1.80;99.90;;;;;;4953340;28;20291;-74
2023/01/19 00:23:46;;;;;;;14.03;7.07;;;-1.80;99.90;;;;;;4953275;28;20487;-74
2023/01/19 00:26:12;;;;;;;11.97;7.57;;;-1.80;99.90;;;;;;4953284;28;20895;-75
2023/01/19 00:28:38;;;;;;;12.80;6.57;;;-1.80;99.90;;;;;;4953256;28;20395;-74
2023/01/19 00:31:03;;;;;;;13.70;8.80;;;-1.90;99.90;;;;;;4952761;28;22076;-75
2023/01/19 00:33:29;;;;;;;14.60;7.10;;;-1.80;99.90;;;;;;4953003;28;20894;-73
2023/01/19 00:35:55;;;;;;;14.47;6.47;;;-1.90;99.90;;;;;;4952997;28;20209;-73
2023/01/19 00:38:21;;;;;;;11.20;6.40;;;-1.80;99.90;;;;;;4953526;28;20558;-73
2023/01/19 00:40:47;;;;;;;12.97;7.67;;;-1.80;99.90;;;;;;4953072;28;20209;-74
2023/01/19 00:43:13;;;;;;;13.27;7.80;;;-1.80;99.90;;;;;;4953088;28;20187;-74
2023/01/19 00:45:39;;;;;;;17.97;7.50;;;-1.80;99.90;;;;;;4952975;28;20492;-74
2023/01/19 00:48:04;;;;;;;17.50;8.30;;;-1.70;99.90;;;;;;4952920;28;20349;-73
2023/01/19 00:50:31;;;;;;;13.80;7.53;;;-1.70;99.90;;;;;;4953177;28;20426;-73
2023/01/19 00:52:59;;;;;;;16.00;9.13;;;-1.80;99.90;;;;;;4952626;28;20192;-73
2023/01/19 00:55:26;;;;;;;15.67;8.10;;;-1.70;99.90;;;;;;4953065;28;20970;-73
2023/01/19 00:57:52;;;;;;;13.40;8.63;;;-1.70;99.90;;;;;;4952967;28;20475;-74
2023/01/19 01:00:19;;;;;;;10.30;7.20;;;-1.80;99.90;;;;;;4953044;28;20804;-74
2023/01/19 01:02:44;;;;;;;15.10;8.03;;;-1.80;99.90;;;;;;4952717;28;20633;-73
2023/01/19 01:05:11;;;;;;;15.43;8.10;;;-1.90;99.90;;;;;;4952858;28;20432;-74
2023/01/19 01:07:40;;;;;;;14.30;7.60;;;-1.90;99.90;;;;;;4953160;28;20672;-74
2023/01/19 01:10:13;;;;;;;14.03;9.20;;;-2.00;99.90;;;;;;4952823;28;20429;-73
2023/01/19 01:12:39;;;;;;;12.63;8.00;;;-2.10;99.90;;;;;;4952699;28;20443;-71
2023/01/19 01:15:08;;;;;;;17.60;8.30;;;-2.10;99.90;;;;;;4953095;28;20434;-74
2023/01/19 01:17:33;;;;;;;12.50;8.23;;;-2.20;99.90;;;;;;4956875;28;20224;-74
2023/01/19 01:19:59;;;;;;;13.40;8.23;;;-2.20;99.90;;;;;;4956531;28;20421;-74
2023/01/19 01:22:24;;;;;;;14.73;8.13;;;-2.30;99.90;;;;;;4956425;28;20205;-74
2023/01/19 01:24:50;;;;;;;14.83;7.90;;;-2.30;99.90;;;;;;4956345;28;20192;-73
2023/01/19 01:27:16;;;;;;;12.87;7.77;;;-2.30;99.90;;;;;;4956708;28;20639;-74
2023/01/19 01:29:45;;;;;;;13.63;7.20;;;-2.40;99.90;;;;;;4956737;28;20185;-74
2023/01/19 01:32:15;;;;;;;13.03;8.00;;;-2.40;99.90;;;;;;4955831;28;20227;-73
2023/01/19 01:34:41;;;;;;;14.37;8.53;;;-2.40;99.90;;;;;;4956305;28;20437;-73
2023/01/19 01:37:07;;;;;;;11.00;7.37;;;-2.50;99.90;;;;;;4956182;28;20400;-74
2023/01/19 01:39:33;;;;;;;15.33;8.30;;;-2.50;99.90;;;;;;4957021;28;20695;-74
2023/01/19 01:41:59;;;;;;;18.73;8.53;;;-2.50;99.90;;;;;;4955572;28;20209;-74
2023/01/19 01:44:48;;;;;;;9.77;7.70;;;-2.50;99.90;;;;;;4956319;28;20966;-74
2023/01/19 01:47:40;;;;;;;10.67;7.63;;;-2.50;99.90;;;;;;4956370;28;20180;-74
2023/01/19 01:50:11;;;;;;;17.03;7.80;;;-2.50;99.90;;;;;;4956098;28;20491;-74
2023/01/19 01:52:42;;;;;;;11.57;8.20;;;-2.60;99.90;;;;;;4955812;28;20437;-74
2023/01/19 01:55:09;;;;;;;11.50;7.17;;;-2.60;99.90;;;;;;4955698;28;20422;-72
2023/01/19 01:57:40;;;;;;;10.13;6.37;;;-2.60;99.90;;;;;;4956129;28;20486;-73
2023/01/19 03:30:49;;;;;;;12.47;7.10;;;-3.00;99.90;;;;;;5955483;23;20412;-73
2023/01/19 03:33:31;;;;;;;10.23;7.27;;;-3.00;99.90;;;;;;4969633;28;20431;-73
2023/01/19 03:36:02;;;;;;;15.47;8.13;;;-3.00;99.90;;;;;;4971887;28;20848;-74
2023/01/19 03:38:33;;;;;;;16.03;8.53;;;-3.10;99.90;;;;;;4966105;28;20475;-75
2023/01/19 03:41:01;;;;;;;10.33;7.70;;;-3.00;99.90;;;;;;4972371;28;20442;-73
2023/01/19 03:43:29;;;;;;;15.20;7.80;;;-3.10;99.90;;;;;;4961307;28;20519;-75
2023/01/19 03:45:55;;;;;;;11.33;6.93;;;-3.10;99.90;;;;;;4961377;28;20507;-74
2023/01/19 03:48:21;;;;;;;13.30;7.67;;;-3.10;99.90;;;;;;4961360;28;20433;-74
2023/01/19 03:50:47;;;;;;;13.70;8.37;;;-3.20;99.90;;;;;;4959952;28;20518;-74
2023/01/19 03:53:15;;;;;;;17.57;8.77;;;-3.20;99.90;;;;;;4956219;28;20432;-71
2023/01/19 03:55:43;;;;;;;10.87;7.80;;;-3.20;99.90;;;;;;4964645;28;20211;-72
2023/01/19 03:58:09;;;;;;;12.77;8.60;;;-3.20;99.90;;;;;;4964214;28;20503;-72
2023/01/19 04:00:35;;;;;;;17.80;7.67;;;-3.20;99.90;;;;;;4964494;28;20936;-72
2023/01/19 04:03:02;;;;;;;11.77;7.00;;;-3.20;99.90;;;;;;4962416;28;20401;-73
2023/01/19 04:05:28;;;;;;;13.90;7.80;;;-3.20;99.90;;;;;;4964924;28;20899;-72
2023/01/19 04:07:54;;;;;;;12.70;7.40;;;-3.20;99.90;;;;;;4964763;28;20435;-72
2023/01/19 04:10:20;;;;;;;12.10;7.23;;;-3.30;99.90;;;;;;4968800;28;20851;-72
2023/01/19 04:12:46;;;;;;;13.77;8.30;;;-3.30;99.90;;;;;;4960495;28;20208;-72
2023/01/19 04:15:12;;;;;;;15.03;7.50;;;-3.40;99.90;;;;;;4960401;28;20454;-72
2023/01/19 04:17:38;;;;;;;13.17;8.00;;;-3.40;99.90;;;;;;4960965;28;20507;-73
2023/01/19 04:20:05;;;;;;;13.33;7.27;;;-3.40;99.90;;;;;;4961329;28;20467;-73
2023/01/19 04:22:31;;;;;;;15.50;6.67;;;-3.40;99.90;;;;;;4959792;28;20456;-72
2023/01/19 04:24:56;;;;;;;15.83;8.00;;;-3.40;99.90;;;;;;4960500;28;20402;-72
2023/01/19 04:27:22;;;;;;;14.23;8.37;;;-3.40;99.90;;;;;;4968609;28;20216;-73
2023/01/19 04:29:47;;;;;;;11.30;6.97;;;-3.50;99.90;;;;;;4967279;28;20182;-72
2023/01/19 04:32:13;;;;;;;10.70;7.07;;;-3.50;99.90;;;;;;4961581;28;20226;-72
2023/01/19 04:34:39;;;;;;;13.13;7.60;;;-3.50;99.90;;;;;;4960834;28;20193;-73
2023/01/19 04:37:05;;;;;;;12.17;8.27;;;-3.60;99.90;;;;;;4961016;28;20417;-72
2023/01/19 04:39:30;;;;;;;12.87;7.83;;;-3.60;99.90;;;;;;4964037;28;20191;-72
2023/01/19 04:41:56;;;;;;;13.13;8.40;;;-3.60;99.90;;;;;;4962389;28;20447;-72
2023/01/19 04:44:22;;;;;;;18.47;8.63;;;-3.60;99.90;;;;;;4959921;28;20196;-74
2023/01/19 04:46:48;;;;;;;11.63;7.00;;;-3.60;99.90;;;;;;4960831;28;20431;-74
2023/01/19 04:49:14;;;;;;;14.93;7.97;;;-3.60;99.90;;;;;;4960494;28;20472;-74
2023/01/19 04:51:39;;;;;;;14.80;8.50;;;-3.70;99.90;;;;;;4959488;28;20477;-74
2023/01/19 04:54:07;;;;;;;13.13;7.63;;;-3.70;99.90;;;;;;4967052;28;20514;-73
2023/01/19 04:56:33;;;;;;;12.97;8.00;;;-3.70;99.90;;;;;;4968771;28;20184;-74
2023/01/19 04:58:59;;;;;;;12.57;7.13;;;-3.70;99.90;;;;;;4968245;28;20497;-74
2023/01/19 05:01:25;;;;;;;15.37;7.00;;;-3.70;99.90;;;;;;4966765;28;20534;-73
2023/01/19 05:03:50;;;;;;;14.43;7.83;;;-3.70;99.90;;;;;;4963222;28;20212;-75
2023/01/19 05:06:16;;;;;;;16.53;8.17;;;-3.70;99.90;;;;;;4964813;28;20196;-74
2023/01/19 05:08:41;;;;;;;15.17;8.70;;;-3.60;99.90;;;;;;4967412;28;20274;-74
2023/01/19 05:11:07;;;;;;;14.50;8.00;;;-3.60;99.90;;;;;;4963260;28;20246;-73
2023/01/19 05:13:33;;;;;;;15.37;7.70;;;-3.60;99.90;;;;;;4963330;28;20200;-74
2023/01/19 05:15:59;;;;;;;8.63;7.20;;;-3.60;99.90;;;;;;4963463;28;20238;-72
2023/01/19 05:18:25;;;;;;;15.67;7.50;;;-3.60;99.90;;;;;;4966609;28;20443;-73
2023/01/19 05:20:50;;;;;;;12.17;7.80;;;-3.50;99.90;;;;;;4966876;28;20454;-73
2023/01/19 05:23:16;;;;;;;11.90;6.80;;;-3.50;99.90;;;;;;4962401;28;20212;-74
2023/01/19 05:25:43;;;;;;;11.97;7.73;;;-3.50;99.90;;;;;;4954290;28;20185;-73
2023/01/19 05:28:09;;;;;;;14.90;8.47;;;-3.40;99.90;;;;;;4954218;28;20240;-74
2023/01/19 05:30:34;;;;;;;10.17;7.43;;;-3.40;99.90;;;;;;4955031;28;20434;-73
2023/01/19 05:33:00;;;;;;;12.73;7.60;;;-3.40;99.90;;;;;;4962993;28;20185;-73
2023/01/19 05:35:25;;;;;;;13.37;7.57;;;-3.30;99.90;;;;;;4963366;28;20185;-74
2023/01/19 05:37:51;;;;;;;13.33;7.80;;;-3.40;99.90;;;;;;4963644;28;20565;-74
2023/01/19 05:40:17;;;;;;;11.73;6.70;;;-3.30;99.90;;;;;;4964866;28;20610;-73
2023/01/19 05:42:42;;;;;;;17.30;8.47;;;-3.30;99.90;;;;;;4962753;28;20209;-72
2023/01/19 05:45:08;;;;;;;12.50;7.70;;;-3.40;99.90;;;;;;4963797;28;20576;-74
2023/01/19 05:47:33;;;;;;;15.13;8.20;;;-3.40;99.90;;;;;;4966854;28;20208;-74
2023/01/19 05:49:59;;;;;;;12.30;7.07;;;-3.40;99.90;;;;;;4966861;28;20496;-73
2023/01/19 05:52:24;;;;;;;10.53;6.97;;;-3.40;99.90;;;;;;4963414;28;20615;-73
2023/01/19 05:54:50;;;;;;;9.97;6.93;;;-3.40;99.90;;;;;;4963475;28;20681;-74
2023/01/19 05:57:16;;;;;;;13.87;7.60;;;-3.40;99.90;;;;;;4964375;28;20670;-73
2023/01/19 05:59:42;;;;;;;14.00;8.10;;;-3.40;99.90;;;;;;4966727;28;20434;-73
2023/01/19 06:02:08;;;;;;;13.27;7.03;;;-3.40;99.90;;;;;;4964406;28;20429;-73
2023/01/19 06:04:33;;;;;;;12.30;7.17;;;-3.40;99.90;;;;;;4963408;28;20193;-73
2023/01/19 06:06:59;;;;;;;14.60;6.73;;;-3.40;99.90;;;;;;4962997;28;20188;-73
2023/01/19 06:09:24;;;;;;;14.10;7.73;;;-3.40;99.90;;;;;;4964126;28;20213;-73
2023/01/19 06:11:53;;;;;;;14.37;8.40;;;-3.50;99.90;;;;;;4960296;28;20275;-72
2023/01/19 06:14:18;;;;;;;12.40;6.53;;;-3.50;99.90;;;;;;4963038;28;20190;-73
2023/01/19 06:16:44;;;;;;;13.90;7.77;;;-3.50;99.90;;;;;;4963007;28;20414;-73
2023/01/19 06:19:09;;;;;;;14.30;6.93;;;-3.50;99.90;;;;;;4963086;28;20272;-73
2023/01/19 06:21:35;;;;;;;20.10;8.77;;;-3.40;99.90;;;;;;4965936;28;20239;-73
2023/01/19 06:24:00;;;;;;;11.07;7.60;;;-3.40;99.90;;;;;;4961831;28;20259;-73
2023/01/19 06:26:26;;;;;;;17.30;7.73;;;-3.30;99.90;;;;;;4955635;28;20189;-74
2023/01/19 06:28:52;;;;;;;26.87;6.47;;;-3.40;99.90;;;;;;4973901;28;20216;-73
2023/01/19 06:31:17;;;;;;;28.90;7.90;;;-3.30;99.90;;;;;;4964036;28;20223;-73
2023/01/19 06:33:43;;;;;;;26.60;7.77;;;-3.30;99.90;;;;;;4961555;28;20181;-73
2023/01/19 06:36:08;;;;;;;28.47;8.47;;;-3.30;99.90;;;;;;4962468;28;20200;-72
2023/01/19 06:38:34;;;;;;;33.27;9.00;;;-3.30;99.90;;;;;;4964884;28;20230;-74
2023/01/19 06:41:02;;;;;;;26.37;7.80;;;-3.30;99.90;;;;;;4959001;28;20228;-74
2023/01/19 06:43:28;;;;;;;26.50;8.80;;;-3.20;99.90;;;;;;4963449;28;20741;-74
2023/01/19 06:45:54;;;;;;;26.90;8.40;;;-3.20;99.90;;;;;;4966099;28;20888;-74
2023/01/19 06:48:20;;;;;;;24.60;8.30;;;-3.20;99.90;;;;;;4964071;28;20467;-73
2023/01/19 06:50:46;;;;;;;29.90;8.23;;;-3.20;99.90;;;;;;4962496;28;20448;-74
2023/01/19 06:53:15;;;;;;;28.67;8.30;;;-3.20;99.90;;;;;;4969962;28;20180;-74
2023/01/19 06:55:43;;;;;;;29.63;7.43;;;-3.10;99.90;;;;;;4962447;28;20412;-74
2023/01/19 06:58:10;;;;;;;30.53;8.67;;;-3.10;99.90;;;;;;4961386;28;20535;-71
2023/01/19 07:00:35;;;;;;;29.97;8.70;;;-3.00;99.90;;;;;;4954215;28;20407;-74
2023/01/19 07:03:01;;;;;;;40.80;10.63;;;-2.90;99.90;;;;;;4960426;28;20446;-73
2023/01/19 07:05:26;;;;;;;35.63;11.57;;;-2.90;99.90;;;;;;4962686;28;20196;-71
2023/01/19 07:07:54;;;;;;;36.70;11.50;;;-2.80;99.90;;;;;;4961964;28;20209;-70
2023/01/19 07:10:20;;;;;;;32.53;10.03;;;-2.80;99.90;;;;;;4962662;28;20650;-71
2023/01/19 07:12:46;;;;;;;41.33;9.63;;;-2.80;99.90;;;;;;4964770;28;20398;-71
2023/01/19 07:15:14;;;;;;;33.70;8.70;;;-2.90;99.90;;;;;;4964323;28;20773;-69
2023/01/19 07:17:41;;;;;;;29.83;9.00;;;-2.90;99.90;;;;;;4961832;28;20442;-71
2023/01/19 07:20:11;;;;;;;31.93;10.07;;;-2.90;99.90;;;;;;4961564;28;20959;-71
2023/01/19 07:22:37;;;;;;;32.20;10.97;;;-2.90;99.90;;;;;;4960131;28;20463;-71
2023/01/19 07:25:03;;;;;;;30.80;10.70;;;-2.90;99.90;;;;;;4961537;28;20425;-72
2023/01/19 07:27:29;;;;;;;30.50;9.60;;;-2.80;99.90;;;;;;4961203;28;20406;-72
2023/01/19 07:29:55;;;;;;;38.03;10.40;;;-2.80;99.90;;;;;;4960838;28;20431;-72
2023/01/19 07:32:20;;;;;;;32.00;9.83;;;-2.80;99.90;;;;;;4962152;28;20275;-73
2023/01/19 07:34:46;;;;;;;30.73;9.37;;;-2.90;99.90;;;;;;4964816;28;20688;-71
2023/01/19 07:37:12;;;;;;;31.13;8.97;;;-2.80;99.90;;;;;;4964493;28;20276;-70
2023/01/19 07:39:37;;;;;;;28.80;9.90;;;-2.90;99.90;;;;;;4963618;28;20724;-72
2023/01/19 07:42:03;;;;;;;29.07;8.73;;;-2.70;99.90;;;;;;4964298;28;20451;-71
2023/01/19 07:44:29;;;;;;;30.67;9.47;;;-2.70;99.90;;;;;;4962245;28;20661;-71
2023/01/19 07:46:54;;;;;;;26.73;8.07;;;-2.70;99.90;;;;;;4961328;28;20438;-71
2023/01/19 07:49:20;;;;;;;27.10;8.63;;;-2.70;99.90;;;;;;4962140;28;20212;-70
2023/01/19 07:51:45;;;;;;;25.83;7.07;;;-2.60;99.90;;;;;;4964489;28;20214;-72
2023/01/19 07:54:11;;;;;;;22.93;5.17;;;-2.60;99.90;;;;;;4964418;28;20227;-72
2023/01/19 07:56:36;;;;;;;28.40;6.80;;;-2.50;99.90;;;;;;4961053;28;20527;-71
2023/01/19 07:59:02;;;;;;;28.10;6.80;;;-2.40;99.90;;;;;;4960985;28;20279;-71
2023/01/19 08:01:28;;;;;;;27.37;7.83;;;-2.30;99.90;;;;;;4962647;28;20294;-70
2023/01/19 08:03:54;;;;;;;27.37;7.23;;;-2.20;99.90;;;;;;4964252;28;20187;-70
2023/01/19 08:06:25;;;;;;;31.47;7.47;;;-2.10;99.90;;;;;;4963259;28;20944;-72
2023/01/19 08:08:51;;;;;;;23.00;6.50;;;-2.00;99.90;;;;;;4961119;28;20249;-72
2023/01/19 08:11:17;;;;;;;24.43;6.50;;;-2.00;99.90;;;;;;4959704;28;20494;-72
2023/01/19 08:13:42;;;;;;;26.60;6.47;;;-1.80;99.90;;;;;;4964166;28;20191;-71
2023/01/19 08:16:08;;;;;;;24.90;6.50;;;-1.70;99.90;;;;;;4964101;28;20189;-71
2023/01/19 08:18:34;;;;;;;26.93;7.40;;;-1.60;99.90;;;;;;4961407;28;20245;-72
2023/01/19 08:20:59;;;;;;;24.07;6.60;;;-1.40;99.90;;;;;;4961294;28;20445;-72
2023/01/19 08:23:26;;;;;;;24.20;5.10;;;-1.30;99.90;;;;;;4962040;28;20205;-71
2023/01/19 08:25:52;;;;;;;24.17;5.83;;;-1.10;99.90;;;;;;4963483;28;20191;-70
2023/01/19 08:28:18;;;;;;;22.07;4.57;;;-1.00;99.90;;;;;;4963273;28;20469;-71
2023/01/19 08:30:44;;;;;;;19.97;4.33;;;-0.80;99.90;;;;;;4960746;28;20470;-72
2023/01/19 08:33:13;;;;;;;21.43;5.10;;;-0.70;99.90;;;;;;4960549;28;20441;-72
2023/01/19 08:35:41;;;;;;;20.90;4.80;;;-0.50;99.90;;;;;;4963622;28;20231;-71
2023/01/19 08:38:08;;;;;;;23.30;5.10;;;-0.50;99.90;;;;;;4963902;28;20456;-71
2023/01/19 08:40:36;;;;;;;22.30;5.07;;;-0.40;99.90;;;;;;4961149;28;20949;-72
2023/01/19 08:43:08;;;;;;;22.07;4.67;;;-0.30;99.90;;;;;;4960268;28;20463;-71
2023/01/19 08:45:40;;;;;;;21.70;5.87;;;-0.20;99.90;;;;;;4962656;28;20459;-73
2023/01/19 08:48:06;;;;;;;23.73;4.67;;;-0.10;99.90;;;;;;4963774;28;20475;-72
2023/01/19 08:50:32;;;;;;;26.90;5.00;;;0.00;99.90;;;;;;4960217;28;20441;-72
2023/01/19 08:53:00;;;;;;;21.47;4.30;;;0.10;99.90;;;;;;4960245;28;20504;-71
2023/01/19 08:55:27;;;;;;;22.40;4.63;;;0.20;99.90;;;;;;4961602;28;20779;-72
2023/01/19 08:57:53;;;;;;;25.83;4.13;;;0.30;99.90;;;;;;4959187;28;20516;-71
2023/01/19 09:00:20;;;;;;;20.40;4.60;;;0.40;99.90;;;;;;4960557;28;20445;-71
2023/01/19 09:02:45;;;;;;;21.07;3.93;;;0.60;99.90;;;;;;4963581;28;20493;-72
2023/01/19 09:05:11;;;;;;;21.87;4.73;;;0.70;99.90;;;;;;4963819;28;20853;-72
2023/01/19 09:07:37;;;;;;;19.73;4.03;;;0.80;99.90;;;;;;4960728;28;20248;-72
2023/01/19 09:10:04;;;;;;;21.20;4.50;;;0.90;99.90;;;;;;4960524;28;20225;-71
2023/01/19 09:12:30;;;;;;;23.00;5.00;;;1.10;99.90;;;;;;4961557;28;20284;-72
2023/01/19 09:14:56;;;;;;;20.07;4.93;;;1.40;99.90;;;;;;4963673;28;20803;-70
2023/01/19 09:17:21;;;;;;;25.50;5.60;;;1.50;99.90;;;;;;4962895;28;20437;-71
2023/01/19 09:19:47;;;;;;;23.33;5.27;;;1.70;99.90;;;;;;4956579;28;20225;-71
2023/01/19 09:22:12;;;;;;;20.13;4.50;;;1.70;99.90;;;;;;4963293;28;20222;-71
2023/01/19 09:24:38;;;;;;;20.33;4.13;;;1.70;99.90;;;;;;4960829;28;20299;-71
2023/01/19 09:27:03;;;;;;;20.47;5.03;;;1.60;99.90;;;;;;4960387;28;20625;-71
2023/01/19 09:29:29;;;;;;;19.90;4.20;;;1.60;99.90;;;;;;4961606;28;20727;-71
2023/01/19 09:31:54;;;;;;;18.80;4.53;;;1.50;99.90;;;;;;4963192;28;20214;-70
2023/01/19 09:34:21;;;;;;;19.23;4.50;;;1.40;99.90;;;;;;4963295;28;20229;-71
2023/01/19 09:36:47;;;;;;;22.43;5.10;;;1.40;99.90;;;;;;4962124;28;20606;-72
2023/01/19 09:39:12;;;;;;;25.93;5.33;;;1.40;99.90;;;;;;4963770;28;20609;-71
2023/01/19 09:41:42;;;;;;;23.73;5.93;;;1.40;99.90;;;;;;4965928;28;20213;-71
2023/01/19 09:44:16;;;;;;;21.67;4.87;;;1.60;99.90;;;;;;4966754;28;20301;-71
2023/01/19 09:46:41;;;;;;;22.27;4.90;;;1.60;99.90;;;;;;4963852;28;20445;-71
2023/01/19 09:49:17;;;;;;;20.10;5.20;;;1.70;99.90;;;;;;4963481;28;20482;-72
2023/01/19 09:51:45;;;;;;;21.47;4.70;;;1.70;99.90;;;;;;4963228;28;20201;-71
2023/01/19 09:54:17;;;;;;;21.50;4.70;;;1.80;99.90;;;;;;4963251;28;20495;-71
2023/01/19 09:56:44;;;;;;;23.53;5.57;;;1.90;99.90;;;;;;4971345;28;20440;-71
2023/01/19 09:59:25;;;;;;;24.00;5.97;;;1.90;99.90;;;;;;4963457;28;20439;-71
2023/01/19 10:02:17;;;;;;;22.30;4.47;;;2.30;99.90;;;;;;4956090;28;20460;-69
2023/01/19 10:04:56;;;;;;;18.60;4.20;;;2.70;99.90;;;;;;4966194;28;20425;-70
2023/01/19 10:07:54;;;;;;;23.43;3.90;;;3.00;99.90;;;;;;4966174;28;20439;-70
2023/01/19 10:10:23;;;;;;;33.77;6.27;;;3.00;99.90;;;;;;4963282;28;20477;-70
2023/01/19 10:12:57;;;;;;;6.87;3.83;;;3.00;99.90;;;;;;4963080;28;20435;-71
2023/01/19 10:15:43;;;;;;;8.97;3.83;;;2.90;99.90;;;;;;4963097;28;20434;-70
2023/01/19 10:18:17;;;;;;;171.83;70.60;;;2.90;99.90;;;;;;4968314;28;20478;-72
2023/01/19 10:20:54;;;;;;;70.20;11.93;;;2.90;99.90;;;;;;4961987;28;20463;-72
2023/01/19 10:23:22;;;;;;;38.67;4.27;;;2.90;99.90;;;;;;4962958;28;20439;-71
2023/01/19 10:25:48;;;;;;;41.97;4.90;;;2.80;99.90;;;;;;4955447;28;20454;-71
2023/01/19 10:28:18;;;;;;;43.13;5.97;;;2.80;99.90;;;;;;4962996;28;20471;-72
2023/01/19 10:30:46;;;;;;;1999.90;999.90;;;2.70;99.90;;;;;;4965540;28;20532;-71
2023/01/19 10:33:12;;;;;;;44.03;5.40;;;2.60;99.90;;;;;;4965955;28;20434;-72
2023/01/19 10:35:38;;;;;;;43.23;6.43;;;2.50;99.90;;;;;;4963843;28;20931;-71
2023/01/19 10:38:04;;;;;;;37.70;4.53;;;2.40;99.90;;;;;;4960476;28;20439;-71
2023/01/19 10:40:35;;;;;;;35.33;4.90;;;2.50;99.90;;;;;;4965868;28;20195;-71
2023/01/19 10:43:20;;;;;;;34.23;4.70;;;2.60;99.90;;;;;;4965843;28;20506;-72
2023/01/19 10:45:49;;;;;;;38.63;5.40;;;2.60;99.90;;;;;;4962569;28;20455;-71
2023/01/19 10:48:15;;;;;;;40.03;4.80;;;2.60;99.90;;;;;;4962036;28;20477;-72
2023/01/19 10:50:41;;;;;;;38.23;4.40;;;2.60;99.90;;;;;;4964732;28;20459;-72
2023/01/19 10:53:20;;;;;;;35.67;4.70;;;2.50;99.90;;;;;;4965628;28;20223;-72
2023/01/19 10:55:45;;;;;;;35.90;4.50;;;2.40;99.90;;;;;;4962743;28;20429;-72
2023/01/19 10:58:33;;;;;;;37.57;4.27;;;2.30;99.90;;;;;;4962507;28;20909;-71
2023/01/19 11:01:22;;;;;;;36.50;4.10;;;2.30;99.90;;;;;;4955702;28;20759;-71
2023/01/19 11:03:48;;;;;;;43.23;4.27;;;2.30;99.90;;;;;;4965156;28;20876;-72
2023/01/19 11:06:14;;;;;;;41.87;4.70;;;2.30;99.90;;;;;;4965521;28;20464;-72
2023/01/19 11:08:41;;;;;;;43.17;4.80;;;2.30;99.90;;;;;;4963298;28;20473;-72
2023/01/19 11:11:07;;;;;;;48.37;4.57;;;2.20;99.90;;;;;;4961819;28;20225;-72
2023/01/19 11:13:34;;;;;;;48.03;4.60;;;2.30;99.90;;;;;;4962895;28;20431;-72
2023/01/19 11:16:27;;;;;;;49.90;5.07;;;2.30;99.90;;;;;;4965359;28;20809;-72
2023/01/19 11:18:55;;;;;;;48.00;4.00;;;3.00;99.90;;;;;;4954618;28;20566;-72
2023/01/19 11:21:26;;;;;;;48.33;4.97;;;3.50;99.90;;;;;;4961683;28;20915;-72
2023/01/19 11:23:54;;;;;;;47.30;4.30;;;3.60;99.90;;;;;;4961742;28;20452;-71
2023/01/19 11:26:40;;;;;;;45.13;4.67;;;3.50;99.90;;;;;;4961938;28;20442;-72
2023/01/19 11:29:19;;;;;;;45.43;4.23;;;3.30;99.90;;;;;;4955945;28;20552;-72
2023/01/19 11:31:45;;;;;;;45.30;3.87;;;3.20;99.90;;;;;;4968987;28;20536;-72
2023/01/19 11:34:33;;;;;;;49.50;4.07;;;3.40;99.90;;;;;;4961426;28;21101;-72
2023/01/19 11:37:05;;;;;;;66.00;5.73;;;3.60;99.90;;;;;;4954841;28;20475;-73
2023/01/19 11:39:45;;;;;;;66.67;5.40;;;3.80;99.90;;;;;;4962127;28;20983;-71
2023/01/19 11:42:12;;;;;;;66.40;5.30;;;4.10;99.90;;;;;;4964416;28;20500;-71
2023/01/19 11:45:01;;;;;;;65.93;5.17;;;4.30;99.90;;;;;;4963794;28;20441;-71
2023/01/19 11:47:44;;;;;;;65.93;4.80;;;4.50;99.90;;;;;;4959701;28;20501;-70
2023/01/19 11:50:26;;;;;;;61.33;4.50;;;5.00;99.90;;;;;;4965450;28;20428;-72
2023/01/19 11:53:00;;;;;;;68.80;5.27;;;5.10;99.90;;;;;;4961098;28;21161;-72
2023/01/19 11:55:45;;;;;;;64.30;4.53;;;4.80;99.90;;;;;;4961375;28;20436;-73
2023/01/19 11:58:18;;;;;;;63.70;4.93;;;4.40;99.90;;;;;;4956035;28;20429;-73
2023/01/19 12:00:53;;;;;;;64.37;4.27;;;4.10;99.90;;;;;;4962337;28;20496;-73
2023/01/19 12:03:40;;;;;;;65.13;4.00;;;3.90;99.90;;;;;;4956357;28;20475;-72
2023/01/19 12:06:20;;;;;;;56.83;3.97;;;3.70;99.90;;;;;;4956208;28;20520;-72
2023/01/19 12:09:04;;;;;;;57.80;3.57;;;3.60;99.90;;;;;;4963437;28;20463;-72
2023/01/19 12:12:34;;;;;;;58.47;4.03;;;3.40;99.90;;;;;;4963742;28;20455;-73
2023/01/19 12:15:20;;;;;;;61.30;4.03;;;3.20;99.90;;;;;;4928858;29;21013;-73
2023/01/19 12:17:49;;;;;;;65.17;4.33;;;3.10;99.90;;;;;;4931635;29;20431;-73
2023/01/19 12:20:35;;;;;;;64.57;4.93;;;3.00;99.90;;;;;;4956939;28;20454;-73
2023/01/19 12:23:26;;;;;;;66.60;4.23;;;2.80;99.90;;;;;;4953843;28;20452;-73
2023/01/19 12:25:52;;;;;;;62.10;4.07;;;2.80;99.90;;;;;;4960788;28;20478;-73
2023/01/19 12:28:30;;;;;;;66.63;5.00;;;2.70;99.90;;;;;;4960940;28;20490;-72
2023/01/19 12:30:58;;;;;;;69.47;4.23;;;2.60;99.90;;;;;;4954297;28;20209;-72
2023/01/19 12:33:29;;;;;;;64.03;4.20;;;2.60;99.90;;;;;;4969463;28;20430;-72
2023/01/19 12:36:05;;;;;;;67.63;5.80;;;2.50;99.90;;;;;;4946340;29;20432;-73
2023/01/19 12:38:53;;;;;;;69.30;5.50;;;2.60;99.90;;;;;;4960977;28;20466;-71
2023/01/19 12:42:03;;;;;;;69.77;5.10;;;2.50;99.90;;;;;;4965078;28;20495;-73
2023/01/19 12:44:32;;;;;;;71.00;5.13;;;2.50;99.90;;;;;;4939847;28;20477;-73
2023/01/19 12:47:05;;;;;;;69.47;5.03;;;2.50;99.90;;;;;;4954223;28;20883;-73
2023/01/19 12:49:48;;;;;;;73.67;5.10;;;2.50;99.90;;;;;;4968896;28;20549;-71
2023/01/19 12:52:26;;;;;;;70.93;5.10;;;2.50;99.90;;;;;;4955323;28;20547;-73
2023/01/19 12:55:13;;;;;;;68.70;5.23;;;2.50;99.90;;;;;;4963427;28;20431;-73
2023/01/19 12:57:59;;;;;;;82.67;5.67;;;2.60;99.90;;;;;;4963101;28;20879;-73
2023/01/19 13:00:24;;;;;;;81.40;5.90;;;2.60;99.90;;;;;;4960679;28;20483;-73
2023/01/19 13:03:25;;;;;;;80.50;6.23;;;2.50;99.90;;;;;;4962696;28;20432;-72
2023/01/19 13:05:55;;;;;;;87.70;7.53;;;2.50;99.90;;;;;;4912515;29;20203;-73
2023/01/19 13:08:26;;;;;;;84.20;8.27;;;2.50;99.90;;;;;;4953248;28;20473;-72
2023/01/19 13:11:12;;;;;;;84.27;7.63;;;2.40;99.90;;;;;;4963092;28;20447;-73
2023/01/19 13:14:04;;;;;;;86.30;8.73;;;2.30;99.90;;;;;;4966514;28;20434;-72
2023/01/19 13:16:29;;;;;;;87.40;8.50;;;2.30;99.90;;;;;;4964116;28;20436;-73
2023/01/19 13:18:59;;;;;;;84.37;9.30;;;2.20;99.90;;;;;;4967146;28;20516;-72
2023/01/19 13:21:29;;;;;;;86.60;9.93;;;2.10;99.90;;;;;;4967361;28;20297;-72
2023/01/19 13:23:57;;;;;;;84.00;9.50;;;2.10;99.90;;;;;;4963935;28;20468;-72
2023/01/19 13:26:27;;;;;;;85.07;8.70;;;2.00;99.90;;;;;;4964047;28;20860;-72
2023/01/19 13:28:56;;;;;;;89.60;8.50;;;2.00;99.90;;;;;;4966413;28;21046;-73
2023/01/19 13:31:24;;;;;;;83.03;8.60;;;1.90;99.90;;;;;;4967031;28;20918;-73
2023/01/19 13:33:58;;;;;;;85.03;9.23;;;1.90;99.90;;;;;;4964980;28;20463;-73
2023/01/19 13:36:30;;;;;;;89.53;9.23;;;1.90;99.90;;;;;;4963740;28;20428;-72
2023/01/19 13:38:59;;;;;;;86.67;11.10;;;1.90;99.90;;;;;;4950713;28;20836;-72
2023/01/19 13:41:28;;;;;;;89.23;9.70;;;1.90;99.90;;;;;;4962314;28;20537;-72
2023/01/19 13:44:07;;;;;;;81.70;8.33;;;1.90;99.90;;;;;;4957707;28;20967;-72
2023/01/19 13:46:33;;;;;;;82.30;8.30;;;1.90;99.90;;;;;;4959099;28;20459;-73
2023/01/19 13:49:04;;;;;;;82.40;8.33;;;1.90;99.90;;;;;;4966089;28;20833;-71
2023/01/19 13:51:29;;;;;;;82.67;9.33;;;1.90;99.90;;;;;;4965582;28;20496;-72
2023/01/19 13:53:56;;;;;;;8.60;6.70;;;1.90;99.90;;;;;;4970899;28;20456;-71
2023/01/19 13:56:27;;;;;;;6.57;5.27;;;1.80;99.90;;;;;;4961189;28;20225;-71
2023/01/19 13:59:10;;;;;;;185.07;125.53;;;1.80;99.90;;;;;;4958114;28;20528;-72
2023/01/19 14:01:44;;;;;;;1999.90;999.90;;;1.80;99.90;;;;;;4964866;28;20843;-72
2023/01/19 14:04:30;;;;;;;1999.90;999.90;;;1.80;99.90;;;;;;4962642;28;21176;-72
2023/01/19 14:07:21;;;;;;;1999.90;999.90;;;1.80;99.90;;;;;;4964825;28;20552;-71
2023/01/19 14:09:46;;;;;;;1999.90;999.90;;;1.80;99.90;;;;;;4956095;28;20479;-72
2023/01/19 14:12:15;;;;;;;10.83;6.00;;;1.90;99.90;;;;;;4954410;28;20841;-72
2023/01/19 14:14:43;;;;;;;10.03;6.57;;;1.90;99.90;;;;;;4962252;28;20204;-72
2023/01/19 14:17:27;;;;;;;9.00;6.17;;;1.90;99.90;;;;;;4962357;28;21105;-71
2023/01/19 14:19:55;;;;;;;6.90;4.70;;;1.80;99.90;;;;;;4964307;28;20458;-73
2023/01/19 14:22:41;;;;;;;11.80;8.53;;;1.90;99.90;;;;;;4964588;28;20508;-72
2023/01/19 14:25:26;;;;;;;11.63;7.67;;;1.90;99.90;;;;;;4955359;28;21241;-71